Rossiter, Pennsylvania
Current Conditions -  °F | °C
As of 11:15 PM on Sunday 25 Jan 2015 (Local Time) from KIDI Reporting Station
Haze Haze  
Wind Chill: 23°   Ceiling: 300
Heat Index: 30°   Visibility: 1.2mi
Dew Point: 30°   Wind: 8mph
Humidity: 100%   Direction: 90°E
Pressure: 29.81"   Gusts: NA
Location:  40.89°N, 78.93°W
Report Text: KIDI 260415Z AUTO 09007KT 1 1/4SM BR OVC003 M01/M01 A2981 RMK A01
Loading
Personal Weather Stations






























Interactive Weather Map New forecast layout! Learn more

10-Day Weather Forecast

Advertisements
Track Severe Weather on mobile